sensor_id;sensor_type;location;lat;lon;timestamp;P1;durP1;ratioP1;P2;durP2;ratioP2
7657;SDS011;8462;53.156;8.220;2023-11-21T00:01:50;27.50;;;11.10;;
7657;SDS011;8462;53.156;8.220;2023-11-21T00:04:17;28.57;;;10.30;;
7657;SDS011;8462;53.156;8.220;2023-11-21T00:06:51;21.53;;;10.87;;
7657;SDS011;8462;53.156;8.220;2023-11-21T00:09:20;38.83;;;12.77;;
7657;SDS011;8462;53.156;8.220;2023-11-21T00:11:48;30.57;;;12.20;;
7657;SDS011;8462;53.156;8.220;2023-11-21T00:14:16;25.37;;;12.27;;
7657;SDS011;8462;53.156;8.220;2023-11-21T00:16:43;25.60;;;11.30;;
7657;SDS011;8462;53.156;8.220;2023-11-21T00:19:10;32.90;;;12.00;;
7657;SDS011;8462;53.156;8.220;2023-11-21T00:21:37;24.00;;;11.43;;
7657;SDS011;8462;53.156;8.220;2023-11-21T00:24:05;30.90;;;12.30;;
7657;SDS011;8462;53.156;8.220;2023-11-21T00:26:32;26.57;;;10.93;;
7657;SDS011;8462;53.156;8.220;2023-11-21T00:29:03;25.77;;;12.37;;
7657;SDS011;8462;53.156;8.220;2023-11-21T00:31:34;22.00;;;10.97;;
7657;SDS011;8462;53.156;8.220;2023-11-21T00:34:02;27.97;;;11.43;;
7657;SDS011;8462;53.156;8.220;2023-11-21T00:36:30;28.83;;;11.40;;
7657;SDS011;8462;53.156;8.220;2023-11-21T00:38:58;27.70;;;12.00;;
7657;SDS011;8462;53.156;8.220;2023-11-21T00:41:25;28.70;;;12.63;;
7657;SDS011;8462;53.156;8.220;2023-11-21T00:43:52;26.33;;;12.33;;
7657;SDS011;8462;53.156;8.220;2023-11-21T00:46:20;24.53;;;12.40;;
7657;SDS011;8462;53.156;8.220;2023-11-21T00:48:50;29.97;;;11.77;;
7657;SDS011;8462;53.156;8.220;2023-11-21T00:51:19;25.47;;;11.73;;
7657;SDS011;8462;53.156;8.220;2023-11-21T00:53:46;24.93;;;11.50;;
7657;SDS011;8462;53.156;8.220;2023-11-21T00:56:14;31.40;;;11.93;;
7657;SDS011;8462;53.156;8.220;2023-11-21T00:58:41;24.63;;;12.40;;
7657;SDS011;8462;53.156;8.220;2023-11-21T01:01:09;26.53;;;12.20;;
7657;SDS011;8462;53.156;8.220;2023-11-21T01:03:36;23.23;;;11.30;;
7657;SDS011;8462;53.156;8.220;2023-11-21T01:06:05;29.43;;;11.87;;
7657;SDS011;8462;53.156;8.220;2023-11-21T01:08:33;24.87;;;12.17;;
7657;SDS011;8462;53.156;8.220;2023-11-21T01:11:01;27.80;;;11.60;;
7657;SDS011;8462;53.156;8.220;2023-11-21T01:13:28;25.93;;;11.60;;
7657;SDS011;8462;53.156;8.220;2023-11-21T01:15:55;23.27;;;12.17;;
7657;SDS011;8462;53.156;8.220;2023-11-21T01:18:22;30.03;;;17.53;;
7657;SDS011;8462;53.156;8.220;2023-11-21T01:20:52;26.77;;;13.50;;
7657;SDS011;8462;53.156;8.220;2023-11-21T01:23:20;26.60;;;13.77;;
7657;SDS011;8462;53.156;8.220;2023-11-21T01:25:49;30.37;;;14.60;;
7657;SDS011;8462;53.156;8.220;2023-11-21T01:28:16;28.30;;;15.33;;
7657;SDS011;8462;53.156;8.220;2023-11-21T01:30:45;35.93;;;14.43;;
7657;SDS011;8462;53.156;8.220;2023-11-21T01:33:12;31.00;;;15.60;;
7657;SDS011;8462;53.156;8.220;2023-11-21T01:35:40;27.07;;;14.83;;
7657;SDS011;8462;53.156;8.220;2023-11-21T01:38:07;33.10;;;14.57;;
7657;SDS011;8462;53.156;8.220;2023-11-21T01:40:36;34.37;;;16.10;;
7657;SDS011;8462;53.156;8.220;2023-11-21T01:43:02;30.23;;;14.73;;
7657;SDS011;8462;53.156;8.220;2023-11-21T01:45:30;28.23;;;15.17;;
7657;SDS011;8462;53.156;8.220;2023-11-21T01:47:59;27.80;;;15.37;;
7657;SDS011;8462;53.156;8.220;2023-11-21T01:50:28;26.00;;;14.77;;
7657;SDS011;8462;53.156;8.220;2023-11-21T01:52:55;26.93;;;14.63;;
7657;SDS011;8462;53.156;8.220;2023-11-21T01:55:23;31.20;;;16.10;;
7657;SDS011;8462;53.156;8.220;2023-11-21T01:57:51;34.70;;;14.57;;
7657;SDS011;8462;53.156;8.220;2023-11-21T02:00:18;30.87;;;14.30;;
7657;SDS011;8462;53.156;8.220;2023-11-21T02:02:45;27.13;;;14.57;;
7657;SDS011;8462;53.156;8.220;2023-11-21T02:05:13;33.63;;;14.50;;
7657;SDS011;8462;53.156;8.220;2023-11-21T02:07:42;28.83;;;14.63;;
7657;SDS011;8462;53.156;8.220;2023-11-21T02:10:11;29.30;;;14.40;;
7657;SDS011;8462;53.156;8.220;2023-11-21T02:12:39;33.07;;;13.97;;
7657;SDS011;8462;53.156;8.220;2023-11-21T02:15:09;25.77;;;14.63;;
7657;SDS011;8462;53.156;8.220;2023-11-21T02:17:42;27.40;;;14.33;;
7657;SDS011;8462;53.156;8.220;2023-11-21T02:20:10;34.97;;;14.60;;
7657;SDS011;8462;53.156;8.220;2023-11-21T02:22:43;32.10;;;14.20;;
7657;SDS011;8462;53.156;8.220;2023-11-21T02:25:12;27.50;;;14.20;;
7657;SDS011;8462;53.156;8.220;2023-11-21T02:27:39;34.87;;;15.23;;
7657;SDS011;8462;53.156;8.220;2023-11-21T02:30:07;29.40;;;14.47;;
7657;SDS011;8462;53.156;8.220;2023-11-21T02:32:38;25.60;;;13.43;;
7657;SDS011;8462;53.156;8.220;2023-11-21T02:35:09;32.07;;;14.07;;
7657;SDS011;8462;53.156;8.220;2023-11-21T02:37:37;29.13;;;14.30;;
7657;SDS011;8462;53.156;8.220;2023-11-21T02:40:07;29.87;;;12.47;;
7657;SDS011;8462;53.156;8.220;2023-11-21T02:42:40;30.47;;;13.80;;
7657;SDS011;8462;53.156;8.220;2023-11-21T02:45:07;33.37;;;14.03;;
7657;SDS011;8462;53.156;8.220;2023-11-21T02:47:37;24.73;;;12.93;;
7657;SDS011;8462;53.156;8.220;2023-11-21T02:50:04;29.43;;;13.30;;
7657;SDS011;8462;53.156;8.220;2023-11-21T02:52:33;23.70;;;12.30;;
7657;SDS011;8462;53.156;8.220;2023-11-21T02:55:01;28.67;;;12.53;;
7657;SDS011;8462;53.156;8.220;2023-11-21T02:57:31;26.67;;;12.07;;
7657;SDS011;8462;53.156;8.220;2023-11-21T03:00:00;26.40;;;10.97;;
7657;SDS011;8462;53.156;8.220;2023-11-21T03:02:28;26.13;;;11.63;;
7657;SDS011;8462;53.156;8.220;2023-11-21T03:04:55;23.90;;;11.53;;
7657;SDS011;8462;53.156;8.220;2023-11-21T03:07:22;26.70;;;12.17;;
7657;SDS011;8462;53.156;8.220;2023-11-21T03:09:49;22.97;;;10.67;;
7657;SDS011;8462;53.156;8.220;2023-11-21T03:12:16;23.17;;;11.57;;
7657;SDS011;8462;53.156;8.220;2023-11-21T03:14:43;24.53;;;12.03;;
7657;SDS011;8462;53.156;8.220;2023-11-21T03:17:12;26.50;;;11.77;;
7657;SDS011;8462;53.156;8.220;2023-11-21T03:19:41;20.93;;;11.10;;
7657;SDS011;8462;53.156;8.220;2023-11-21T03:22:07;20.83;;;11.70;;
7657;SDS011;8462;53.156;8.220;2023-11-21T03:24:35;26.63;;;13.00;;
7657;SDS011;8462;53.156;8.220;2023-11-21T03:27:03;24.43;;;12.50;;
7657;SDS011;8462;53.156;8.220;2023-11-21T03:29:30;25.23;;;12.07;;
7657;SDS011;8462;53.156;8.220;2023-11-21T03:31:57;27.17;;;12.03;;
7657;SDS011;8462;53.156;8.220;2023-11-21T03:34:27;25.10;;;13.07;;
7657;SDS011;8462;53.156;8.220;2023-11-21T03:36:54;27.57;;;14.40;;
7657;SDS011;8462;53.156;8.220;2023-11-21T03:39:21;25.37;;;12.60;;
7657;SDS011;8462;53.156;8.220;2023-11-21T03:41:48;37.00;;;14.87;;
7657;SDS011;8462;53.156;8.220;2023-11-21T03:44:18;27.23;;;13.70;;
7657;SDS011;8462;53.156;8.220;2023-11-21T03:46:45;27.70;;;13.57;;
7657;SDS011;8462;53.156;8.220;2023-11-21T03:49:12;22.87;;;10.90;;
7657;SDS011;8462;53.156;8.220;2023-11-21T03:51:42;31.50;;;13.87;;
7657;SDS011;8462;53.156;8.220;2023-11-21T03:54:09;28.10;;;13.30;;
7657;SDS011;8462;53.156;8.220;2023-11-21T03:56:39;37.50;;;13.83;;
7657;SDS011;8462;53.156;8.220;2023-11-21T03:59:05;35.50;;;14.97;;
7657;SDS011;8462;53.156;8.220;2023-11-21T04:01:33;47.13;;;15.97;;
7657;SDS011;8462;53.156;8.220;2023-11-21T04:03:59;27.13;;;12.53;;
7657;SDS011;8462;53.156;8.220;2023-11-21T04:06:26;40.77;;;15.63;;
7657;SDS011;8462;53.156;8.220;2023-11-21T04:08:55;32.70;;;14.40;;
7657;SDS011;8462;53.156;8.220;2023-11-21T04:11:22;40.43;;;16.33;;
7657;SDS011;8462;53.156;8.220;2023-11-21T04:13:49;43.10;;;17.23;;
7657;SDS011;8462;53.156;8.220;2023-11-21T04:16:17;39.43;;;16.93;;
7657;SDS011;8462;53.156;8.220;2023-11-21T04:18:44;40.53;;;16.90;;
7657;SDS011;8462;53.156;8.220;2023-11-21T04:21:11;48.13;;;18.70;;
7657;SDS011;8462;53.156;8.220;2023-11-21T04:23:38;60.07;;;21.67;;
7657;SDS011;8462;53.156;8.220;2023-11-21T04:26:07;49.47;;;18.83;;
7657;SDS011;8462;53.156;8.220;2023-11-21T04:28:34;48.80;;;19.57;;
7657;SDS011;8462;53.156;8.220;2023-11-21T04:31:02;60.93;;;24.00;;
7657;SDS011;8462;53.156;8.220;2023-11-21T04:33:29;53.83;;;22.30;;
7657;SDS011;8462;53.156;8.220;2023-11-21T04:35:56;57.13;;;23.27;;
7657;SDS011;8462;53.156;8.220;2023-11-21T04:38:23;49.23;;;20.87;;
7657;SDS011;8462;53.156;8.220;2023-11-21T04:40:50;60.37;;;25.33;;
7657;SDS011;8462;53.156;8.220;2023-11-21T04:43:18;56.50;;;23.33;;
7657;SDS011;8462;53.156;8.220;2023-11-21T04:45:50;64.07;;;25.90;;
7657;SDS011;8462;53.156;8.220;2023-11-21T04:48:17;60.10;;;24.37;;
7657;SDS011;8462;53.156;8.220;2023-11-21T04:50:44;56.57;;;24.63;;
7657;SDS011;8462;53.156;8.220;2023-11-21T04:53:11;50.53;;;21.37;;
7657;SDS011;8462;53.156;8.220;2023-11-21T04:55:39;50.93;;;22.80;;
7657;SDS011;8462;53.156;8.220;2023-11-21T04:58:06;58.87;;;24.77;;
7657;SDS011;8462;53.156;8.220;2023-11-21T05:00:35;53.67;;;23.70;;
7657;SDS011;8462;53.156;8.220;2023-11-21T05:03:02;44.77;;;22.23;;
7657;SDS011;8462;53.156;8.220;2023-11-21T05:05:29;42.60;;;20.00;;
7657;SDS011;8462;53.156;8.220;2023-11-21T05:07:56;46.13;;;22.63;;
7657;SDS011;8462;53.156;8.220;2023-11-21T05:10:23;40.10;;;16.40;;
7657;SDS011;8462;53.156;8.220;2023-11-21T05:12:50;47.17;;;23.77;;
7657;SDS011;8462;53.156;8.220;2023-11-21T05:15:17;41.23;;;21.10;;
7657;SDS011;8462;53.156;8.220;2023-11-21T05:17:46;46.67;;;21.83;;
7657;SDS011;8462;53.156;8.220;2023-11-21T05:20:15;39.67;;;19.50;;
7657;SDS011;8462;53.156;8.220;2023-11-21T05:22:47;36.17;;;20.40;;
7657;SDS011;8462;53.156;8.220;2023-11-21T05:25:14;33.00;;;16.37;;
7657;SDS011;8462;53.156;8.220;2023-11-21T05:27:44;39.60;;;19.17;;
7657;SDS011;8462;53.156;8.220;2023-11-21T05:30:11;33.60;;;17.40;;
7657;SDS011;8462;53.156;8.220;2023-11-21T05:32:41;34.93;;;18.53;;
7657;SDS011;8462;53.156;8.220;2023-11-21T05:35:10;34.80;;;17.23;;
7657;SDS011;8462;53.156;8.220;2023-11-21T05:37:40;28.77;;;16.53;;
7657;SDS011;8462;53.156;8.220;2023-11-21T05:40:08;36.53;;;17.57;;
7657;SDS011;8462;53.156;8.220;2023-11-21T05:42:35;32.80;;;16.30;;
7657;SDS011;8462;53.156;8.220;2023-11-21T05:45:05;32.40;;;16.93;;
7657;SDS011;8462;53.156;8.220;2023-11-21T05:47:35;32.40;;;16.57;;
7657;SDS011;8462;53.156;8.220;2023-11-21T05:50:03;31.13;;;14.60;;
7657;SDS011;8462;53.156;8.220;2023-11-21T05:52:36;28.63;;;14.90;;
7657;SDS011;8462;53.156;8.220;2023-11-21T05:55:03;36.73;;;16.77;;
7657;SDS011;8462;53.156;8.220;2023-11-21T05:57:32;38.40;;;18.37;;
7657;SDS011;8462;53.156;8.220;2023-11-21T06:00:02;35.60;;;16.13;;
7657;SDS011;8462;53.156;8.220;2023-11-21T06:05:28;36.30;;;16.40;;
7657;SDS011;8462;53.156;8.220;2023-11-21T06:07:58;32.73;;;15.53;;
7657;SDS011;8462;53.156;8.220;2023-11-21T06:10:26;33.00;;;16.60;;
7657;SDS011;8462;53.156;8.220;2023-11-21T06:12:54;33.70;;;17.43;;
7657;SDS011;8462;53.156;8.220;2023-11-21T06:15:22;34.57;;;15.83;;
7657;SDS011;8462;53.156;8.220;2023-11-21T06:17:49;30.97;;;16.43;;
7657;SDS011;8462;53.156;8.220;2023-11-21T06:20:18;29.57;;;15.60;;
7657;SDS011;8462;53.156;8.220;2023-11-21T06:22:45;32.57;;;16.10;;
7657;SDS011;8462;53.156;8.220;2023-11-21T06:25:14;32.03;;;17.63;;
7657;SDS011;8462;53.156;8.220;2023-11-21T06:27:43;32.93;;;18.60;;
7657;SDS011;8462;53.156;8.220;2023-11-21T06:30:11;24.90;;;15.40;;
7657;SDS011;8462;53.156;8.220;2023-11-21T06:32:39;29.47;;;15.40;;
7657;SDS011;8462;53.156;8.220;2023-11-21T06:35:06;31.53;;;15.77;;
7657;SDS011;8462;53.156;8.220;2023-11-21T06:37:35;22.57;;;13.33;;
7657;SDS011;8462;53.156;8.220;2023-11-21T06:40:03;22.83;;;13.77;;
7657;SDS011;8462;53.156;8.220;2023-11-21T06:42:32;17.80;;;11.50;;
7657;SDS011;8462;53.156;8.220;2023-11-21T06:44:59;14.97;;;10.70;;
7657;SDS011;8462;53.156;8.220;2023-11-21T06:47:29;14.80;;;11.13;;
7657;SDS011;8462;53.156;8.220;2023-11-21T06:49:56;12.40;;;8.87;;
7657;SDS011;8462;53.156;8.220;2023-11-21T06:52:24;12.17;;;8.90;;
7657;SDS011;8462;53.156;8.220;2023-11-21T06:54:51;11.87;;;8.03;;
7657;SDS011;8462;53.156;8.220;2023-11-21T06:57:18;11.70;;;8.40;;
7657;SDS011;8462;53.156;8.220;2023-11-21T06:59:46;12.47;;;9.47;;
7657;SDS011;8462;53.156;8.220;2023-11-21T07:02:14;11.63;;;7.67;;
7657;SDS011;8462;53.156;8.220;2023-11-21T07:04:43;12.83;;;7.97;;
7657;SDS011;8462;53.156;8.220;2023-11-21T07:07:10;11.80;;;8.30;;
7657;SDS011;8462;53.156;8.220;2023-11-21T07:09:37;13.30;;;8.90;;
7657;SDS011;8462;53.156;8.220;2023-11-21T07:12:04;12.63;;;7.53;;
7657;SDS011;8462;53.156;8.220;2023-11-21T07:14:32;14.27;;;9.73;;
7657;SDS011;8462;53.156;8.220;2023-11-21T07:17:01;15.20;;;10.73;;
7657;SDS011;8462;53.156;8.220;2023-11-21T07:19:28;12.90;;;9.60;;
7657;SDS011;8462;53.156;8.220;2023-11-21T07:21:55;12.20;;;9.47;;
7657;SDS011;8462;53.156;8.220;2023-11-21T07:24:22;15.30;;;10.30;;
7657;SDS011;8462;53.156;8.220;2023-11-21T07:26:50;13.57;;;9.13;;
7657;SDS011;8462;53.156;8.220;2023-11-21T07:29:22;15.83;;;11.30;;
7657;SDS011;8462;53.156;8.220;2023-11-21T07:31:50;15.17;;;10.37;;
7657;SDS011;8462;53.156;8.220;2023-11-21T07:34:19;15.00;;;10.53;;
7657;SDS011;8462;53.156;8.220;2023-11-21T07:36:47;15.37;;;10.70;;
7657;SDS011;8462;53.156;8.220;2023-11-21T07:39:14;14.13;;;8.80;;
7657;SDS011;8462;53.156;8.220;2023-11-21T07:41:51;14.63;;;9.47;;
7657;SDS011;8462;53.156;8.220;2023-11-21T07:44:19;14.63;;;9.33;;
7657;SDS011;8462;53.156;8.220;2023-11-21T07:46:46;22.00;;;11.17;;
7657;SDS011;8462;53.156;8.220;2023-11-21T07:49:14;12.57;;;9.23;;
7657;SDS011;8462;53.156;8.220;2023-11-21T07:51:46;12.30;;;8.67;;
7657;SDS011;8462;53.156;8.220;2023-11-21T07:54:13;12.70;;;9.30;;
7657;SDS011;8462;53.156;8.220;2023-11-21T07:56:42;13.47;;;9.30;;
7657;SDS011;8462;53.156;8.220;2023-11-21T07:59:09;13.43;;;9.10;;
7657;SDS011;8462;53.156;8.220;2023-11-21T08:01:37;11.83;;;8.80;;
7657;SDS011;8462;53.156;8.220;2023-11-21T08:04:05;13.00;;;9.03;;
7657;SDS011;8462;53.156;8.220;2023-11-21T08:06:33;13.03;;;9.17;;
7657;SDS011;8462;53.156;8.220;2023-11-21T08:09:01;12.17;;;7.90;;
7657;SDS011;8462;53.156;8.220;2023-11-21T08:11:28;11.53;;;9.60;;
7657;SDS011;8462;53.156;8.220;2023-11-21T08:13:59;13.47;;;9.13;;
7657;SDS011;8462;53.156;8.220;2023-11-21T08:16:28;13.53;;;9.60;;
7657;SDS011;8462;53.156;8.220;2023-11-21T08:18:56;12.90;;;9.43;;
7657;SDS011;8462;53.156;8.220;2023-11-21T08:21:24;14.33;;;9.83;;
7657;SDS011;8462;53.156;8.220;2023-11-21T08:23:54;11.73;;;8.53;;
7657;SDS011;8462;53.156;8.220;2023-11-21T08:26:23;13.20;;;9.33;;
7657;SDS011;8462;53.156;8.220;2023-11-21T08:28:50;12.00;;;9.03;;
7657;SDS011;8462;53.156;8.220;2023-11-21T08:31:24;14.87;;;9.57;;
7657;SDS011;8462;53.156;8.220;2023-11-21T08:33:53;11.50;;;8.53;;
7657;SDS011;8462;53.156;8.220;2023-11-21T08:36:21;11.83;;;9.23;;
7657;SDS011;8462;53.156;8.220;2023-11-21T08:38:50;11.13;;;8.13;;
7657;SDS011;8462;53.156;8.220;2023-11-21T08:41:18;13.73;;;9.50;;
7657;SDS011;8462;53.156;8.220;2023-11-21T08:43:49;12.10;;;8.57;;
7657;SDS011;8462;53.156;8.220;2023-11-21T08:46:18;12.33;;;9.67;;
7657;SDS011;8462;53.156;8.220;2023-11-21T08:48:46;12.20;;;8.80;;
7657;SDS011;8462;53.156;8.220;2023-11-21T08:51:13;11.70;;;8.50;;
7657;SDS011;8462;53.156;8.220;2023-11-21T08:53:41;12.53;;;9.03;;
7657;SDS011;8462;53.156;8.220;2023-11-21T08:56:08;11.70;;;8.67;;
7657;SDS011;8462;53.156;8.220;2023-11-21T08:58:39;13.60;;;9.20;;
7657;SDS011;8462;53.156;8.220;2023-11-21T09:01:09;12.73;;;8.70;;
7657;SDS011;8462;53.156;8.220;2023-11-21T09:03:37;12.07;;;8.53;;
7657;SDS011;8462;53.156;8.220;2023-11-21T09:06:05;15.70;;;9.40;;
7657;SDS011;8462;53.156;8.220;2023-11-21T09:08:34;13.53;;;8.97;;
7657;SDS011;8462;53.156;8.220;2023-11-21T09:11:01;11.50;;;8.87;;
7657;SDS011;8462;53.156;8.220;2023-11-21T09:13:28;13.13;;;9.37;;
7657;SDS011;8462;53.156;8.220;2023-11-21T09:15:57;12.43;;;9.27;;
7657;SDS011;8462;53.156;8.220;2023-11-21T09:18:25;13.27;;;9.50;;
7657;SDS011;8462;53.156;8.220;2023-11-21T09:20:52;12.70;;;8.33;;
7657;SDS011;8462;53.156;8.220;2023-11-21T09:23:19;12.73;;;7.37;;
7657;SDS011;8462;53.156;8.220;2023-11-21T09:25:46;13.60;;;8.90;;
7657;SDS011;8462;53.156;8.220;2023-11-21T09:28:16;12.60;;;8.57;;
7657;SDS011;8462;53.156;8.220;2023-11-21T09:30:43;14.30;;;9.00;;
7657;SDS011;8462;53.156;8.220;2023-11-21T09:33:10;10.73;;;7.67;;
7657;SDS011;8462;53.156;8.220;2023-11-21T09:35:38;11.37;;;8.97;;
7657;SDS011;8462;53.156;8.220;2023-11-21T09:38:05;11.60;;;8.60;;
7657;SDS011;8462;53.156;8.220;2023-11-21T09:40:36;11.73;;;7.57;;
7657;SDS011;8462;53.156;8.220;2023-11-21T09:43:05;11.17;;;8.37;;
7657;SDS011;8462;53.156;8.220;2023-11-21T09:45:35;10.73;;;8.37;;
7657;SDS011;8462;53.156;8.220;2023-11-21T09:48:02;10.70;;;8.50;;
7657;SDS011;8462;53.156;8.220;2023-11-21T09:50:30;10.90;;;7.87;;
7657;SDS011;8462;53.156;8.220;2023-11-21T09:53:03;10.70;;;8.23;;
7657;SDS011;8462;53.156;8.220;2023-11-21T09:55:42;10.57;;;7.70;;
7657;SDS011;8462;53.156;8.220;2023-11-21T09:58:13;9.70;;;7.67;;
7657;SDS011;8462;53.156;8.220;2023-11-21T10:00:44;10.63;;;7.37;;
7657;SDS011;8462;53.156;8.220;2023-11-21T10:03:13;11.87;;;8.33;;
7657;SDS011;8462;53.156;8.220;2023-11-21T10:05:42;8.33;;;6.90;;
7657;SDS011;8462;53.156;8.220;2023-11-21T10:08:13;8.97;;;7.23;;
7657;SDS011;8462;53.156;8.220;2023-11-21T10:10:42;10.20;;;7.70;;
7657;SDS011;8462;53.156;8.220;2023-11-21T10:13:11;9.67;;;7.57;;
7657;SDS011;8462;53.156;8.220;2023-11-21T10:15:43;9.53;;;7.50;;
7657;SDS011;8462;53.156;8.220;2023-11-21T10:18:14;10.67;;;8.27;;
7657;SDS011;8462;53.156;8.220;2023-11-21T10:20:42;12.30;;;7.53;;
7657;SDS011;8462;53.156;8.220;2023-11-21T10:23:13;10.20;;;8.10;;
7657;SDS011;8462;53.156;8.220;2023-11-21T10:25:40;10.20;;;7.67;;
7657;SDS011;8462;53.156;8.220;2023-11-21T10:28:07;9.57;;;7.37;;
7657;SDS011;8462;53.156;8.220;2023-11-21T10:30:37;12.33;;;7.47;;
7657;SDS011;8462;53.156;8.220;2023-11-21T10:33:05;9.30;;;6.53;;
7657;SDS011;8462;53.156;8.220;2023-11-21T10:35:42;13.30;;;7.03;;
7657;SDS011;8462;53.156;8.220;2023-11-21T10:38:15;11.83;;;7.97;;
7657;SDS011;8462;53.156;8.220;2023-11-21T10:40:42;9.37;;;7.07;;
7657;SDS011;8462;53.156;8.220;2023-11-21T10:43:12;10.17;;;7.77;;
7657;SDS011;8462;53.156;8.220;2023-11-21T10:45:41;9.93;;;7.93;;
7657;SDS011;8462;53.156;8.220;2023-11-21T10:48:09;9.70;;;7.63;;
7657;SDS011;8462;53.156;8.220;2023-11-21T10:50:37;8.97;;;7.13;;
7657;SDS011;8462;53.156;8.220;2023-11-21T10:53:04;10.57;;;8.40;;
7657;SDS011;8462;53.156;8.220;2023-11-21T10:55:33;9.77;;;7.37;;
7657;SDS011;8462;53.156;8.220;2023-11-21T10:58:01;11.37;;;8.13;;
7657;SDS011;8462;53.156;8.220;2023-11-21T11:00:30;11.67;;;8.37;;
7657;SDS011;8462;53.156;8.220;2023-11-21T11:02:58;11.13;;;7.93;;
7657;SDS011;8462;53.156;8.220;2023-11-21T11:05:27;10.03;;;7.83;;
7657;SDS011;8462;53.156;8.220;2023-11-21T11:07:58;11.10;;;8.07;;
7657;SDS011;8462;53.156;8.220;2023-11-21T11:10:27;11.17;;;8.13;;
7657;SDS011;8462;53.156;8.220;2023-11-21T11:12:56;9.30;;;8.30;;
7657;SDS011;8462;53.156;8.220;2023-11-21T11:15:24;10.50;;;7.33;;
7657;SDS011;8462;53.156;8.220;2023-11-21T11:17:52;10.87;;;8.20;;
7657;SDS011;8462;53.156;8.220;2023-11-21T11:20:22;11.23;;;8.20;;
7657;SDS011;8462;53.156;8.220;2023-11-21T11:22:58;9.47;;;7.17;;
7657;SDS011;8462;53.156;8.220;2023-11-21T11:25:37;11.23;;;8.97;;
7657;SDS011;8462;53.156;8.220;2023-11-21T11:28:19;11.93;;;8.17;;
7657;SDS011;8462;53.156;8.220;2023-11-21T11:30:54;11.80;;;7.50;;
7657;SDS011;8462;53.156;8.220;2023-11-21T11:33:31;8.93;;;7.20;;
7657;SDS011;8462;53.156;8.220;2023-11-21T11:36:06;10.37;;;8.07;;
7657;SDS011;8462;53.156;8.220;2023-11-21T11:38:36;11.33;;;7.60;;
7657;SDS011;8462;53.156;8.220;2023-11-21T11:41:04;10.80;;;7.67;;
7657;SDS011;8462;53.156;8.220;2023-11-21T11:43:35;8.70;;;7.07;;
7657;SDS011;8462;53.156;8.220;2023-11-21T11:46:09;8.07;;;6.73;;
7657;SDS011;8462;53.156;8.220;2023-11-21T11:48:38;8.47;;;6.80;;
7657;SDS011;8462;53.156;8.220;2023-11-21T11:51:06;8.70;;;6.87;;
7657;SDS011;8462;53.156;8.220;2023-11-21T11:53:40;9.37;;;7.37;;
7657;SDS011;8462;53.156;8.220;2023-11-21T11:56:24;9.23;;;6.60;;
7657;SDS011;8462;53.156;8.220;2023-11-21T11:58:58;8.57;;;7.23;;
7657;SDS011;8462;53.156;8.220;2023-11-21T12:01:30;8.90;;;7.40;;
7657;SDS011;8462;53.156;8.220;2023-11-21T12:07:00;9.57;;;6.90;;
7657;SDS011;8462;53.156;8.220;2023-11-21T12:09:31;11.27;;;7.03;;
7657;SDS011;8462;53.156;8.220;2023-11-21T12:11:58;9.07;;;7.17;;
7657;SDS011;8462;53.156;8.220;2023-11-21T12:14:27;7.40;;;6.00;;
7657;SDS011;8462;53.156;8.220;2023-11-21T12:16:55;9.27;;;7.40;;
7657;SDS011;8462;53.156;8.220;2023-11-21T12:19:22;9.90;;;6.17;;
7657;SDS011;8462;53.156;8.220;2023-11-21T12:21:49;7.73;;;4.93;;
7657;SDS011;8462;53.156;8.220;2023-11-21T12:24:17;6.60;;;5.70;;
7657;SDS011;8462;53.156;8.220;2023-11-21T12:26:44;5.97;;;4.90;;
7657;SDS011;8462;53.156;8.220;2023-11-21T12:29:11;7.03;;;4.40;;
7657;SDS011;8462;53.156;8.220;2023-11-21T12:31:39;4.43;;;3.80;;
7657;SDS011;8462;53.156;8.220;2023-11-21T12:34:07;5.77;;;4.70;;
7657;SDS011;8462;53.156;8.220;2023-11-21T12:36:37;5.23;;;3.60;;
7657;SDS011;8462;53.156;8.220;2023-11-21T12:39:05;6.20;;;3.70;;
7657;SDS011;8462;53.156;8.220;2023-11-21T12:41:34;4.43;;;3.90;;
7657;SDS011;8462;53.156;8.220;2023-11-21T12:44:01;4.93;;;3.40;;
7657;SDS011;8462;53.156;8.220;2023-11-21T12:46:28;4.80;;;3.90;;
7657;SDS011;8462;53.156;8.220;2023-11-21T12:48:59;4.60;;;3.53;;
7657;SDS011;8462;53.156;8.220;2023-11-21T12:51:26;4.30;;;3.47;;
7657;SDS011;8462;53.156;8.220;2023-11-21T12:53:55;5.23;;;4.00;;
7657;SDS011;8462;53.156;8.220;2023-11-21T12:56:23;6.27;;;4.90;;
7657;SDS011;8462;53.156;8.220;2023-11-21T12:58:53;7.70;;;4.60;;
7657;SDS011;8462;53.156;8.220;2023-11-21T13:01:25;6.30;;;4.73;;
7657;SDS011;8462;53.156;8.220;2023-11-21T13:03:53;7.17;;;5.30;;
7657;SDS011;8462;53.156;8.220;2023-11-21T13:06:24;7.47;;;5.30;;
7657;SDS011;8462;53.156;8.220;2023-11-21T13:08:51;5.80;;;4.17;;
7657;SDS011;8462;53.156;8.220;2023-11-21T13:11:19;7.63;;;5.43;;
7657;SDS011;8462;53.156;8.220;2023-11-21T13:13:52;5.97;;;4.73;;
7657;SDS011;8462;53.156;8.220;2023-11-21T13:16:19;6.27;;;4.63;;
7657;SDS011;8462;53.156;8.220;2023-11-21T13:18:47;6.70;;;5.57;;
7657;SDS011;8462;53.156;8.220;2023-11-21T13:21:14;9.67;;;5.33;;
7657;SDS011;8462;53.156;8.220;2023-11-21T13:23:43;6.37;;;5.20;;
7657;SDS011;8462;53.156;8.220;2023-11-21T13:26:13;6.83;;;5.40;;
7657;SDS011;8462;53.156;8.220;2023-11-21T13:28:41;7.43;;;5.47;;
7657;SDS011;8462;53.156;8.220;2023-11-21T13:31:11;5.60;;;4.60;;
7657;SDS011;8462;53.156;8.220;2023-11-21T13:33:51;5.10;;;4.47;;
7657;SDS011;8462;53.156;8.220;2023-11-21T13:36:21;5.90;;;4.83;;
7657;SDS011;8462;53.156;8.220;2023-11-21T13:38:51;5.07;;;4.57;;
7657;SDS011;8462;53.156;8.220;2023-11-21T13:41:18;9.90;;;7.07;;
7657;SDS011;8462;53.156;8.220;2023-11-21T13:43:47;5.10;;;4.60;;
7657;SDS011;8462;53.156;8.220;2023-11-21T13:46:22;6.50;;;5.20;;
7657;SDS011;8462;53.156;8.220;2023-11-21T13:48:49;7.57;;;4.60;;
7657;SDS011;8462;53.156;8.220;2023-11-21T13:51:21;6.57;;;4.87;;
7657;SDS011;8462;53.156;8.220;2023-11-21T13:53:57;5.73;;;4.87;;
7657;SDS011;8462;53.156;8.220;2023-11-21T13:56:25;5.23;;;4.73;;
7657;SDS011;8462;53.156;8.220;2023-11-21T13:58:55;7.07;;;5.37;;
7657;SDS011;8462;53.156;8.220;2023-11-21T14:01:26;7.90;;;4.77;;
7657;SDS011;8462;53.156;8.220;2023-11-21T14:04:12;5.73;;;4.63;;
7657;SDS011;8462;53.156;8.220;2023-11-21T14:06:45;5.00;;;4.50;;
7657;SDS011;8462;53.156;8.220;2023-11-21T14:09:16;5.13;;;4.40;;
7657;SDS011;8462;53.156;8.220;2023-11-21T14:11:48;7.23;;;4.60;;
7657;SDS011;8462;53.156;8.220;2023-11-21T14:14:17;5.13;;;4.57;;
7657;SDS011;8462;53.156;8.220;2023-11-21T14:16:44;6.13;;;4.90;;
7657;SDS011;8462;53.156;8.220;2023-11-21T14:19:11;5.73;;;4.47;;
7657;SDS011;8462;53.156;8.220;2023-11-21T14:21:42;4.90;;;4.03;;
7657;SDS011;8462;53.156;8.220;2023-11-21T14:24:10;5.37;;;3.90;;
7657;SDS011;8462;53.156;8.220;2023-11-21T14:26:40;6.37;;;4.37;;
7657;SDS011;8462;53.156;8.220;2023-11-21T14:29:07;5.40;;;4.30;;
7657;SDS011;8462;53.156;8.220;2023-11-21T14:31:37;6.73;;;4.40;;
7657;SDS011;8462;53.156;8.220;2023-11-21T14:34:04;5.40;;;4.47;;
7657;SDS011;8462;53.156;8.220;2023-11-21T14:36:32;5.33;;;4.17;;
7657;SDS011;8462;53.156;8.220;2023-11-21T14:38:59;6.57;;;4.33;;
7657;SDS011;8462;53.156;8.220;2023-11-21T14:41:26;5.57;;;4.97;;
7657;SDS011;8462;53.156;8.220;2023-11-21T14:43:55;7.73;;;4.97;;
7657;SDS011;8462;53.156;8.220;2023-11-21T14:46:24;5.33;;;4.83;;
7657;SDS011;8462;53.156;8.220;2023-11-21T14:48:51;6.00;;;5.37;;
7657;SDS011;8462;53.156;8.220;2023-11-21T14:51:32;5.80;;;4.60;;
7657;SDS011;8462;53.156;8.220;2023-11-21T14:54:19;6.47;;;5.40;;
7657;SDS011;8462;53.156;8.220;2023-11-21T14:57:00;6.60;;;5.63;;
7657;SDS011;8462;53.156;8.220;2023-11-21T14:59:28;6.90;;;5.80;;
7657;SDS011;8462;53.156;8.220;2023-11-21T15:01:57;6.87;;;5.60;;
7657;SDS011;8462;53.156;8.220;2023-11-21T15:04:39;6.37;;;5.43;;
7657;SDS011;8462;53.156;8.220;2023-11-21T15:07:07;6.20;;;5.60;;
7657;SDS011;8462;53.156;8.220;2023-11-21T15:09:37;7.50;;;4.90;;
7657;SDS011;8462;53.156;8.220;2023-11-21T15:12:07;7.47;;;5.53;;
7657;SDS011;8462;53.156;8.220;2023-11-21T15:14:42;7.77;;;5.73;;